Time;durP1;ratioP1;P1;durP2;ratioP2;P2;SDS_P1;SDS_P2;PMS_P1;PMS_P2;Temp;Humidity;BMP_temperature;BMP_pressure;BME280_temperature;BME280_humidity;BME280_pressure;Samples;Min_cycle;Max_cycle;Signal;HPM_P1;HPM_P2
2022/03/08 00:00:31;;;;;;;24.17;16.90;;;2.00;61.60;;;;;;5089315;28;20056;-86
2022/03/08 00:02:59;;;;;;;22.63;16.50;;;2.00;61.60;;;;;;5071806;28;20044;-86
2022/03/08 00:05:26;;;;;;;25.48;17.92;;;2.00;61.60;;;;;;5088183;28;20086;-87
2022/03/08 00:07:54;;;;;;;24.48;17.00;;;2.00;61.60;;;;;;5090442;28;20105;-86
2022/03/08 00:10:21;;;;;;;24.63;17.02;;;2.00;61.60;;;;;;5090193;28;20494;-86
2022/03/08 00:12:48;;;;;;;21.88;16.83;;;1.90;61.60;;;;;;5089860;28;20121;-88
2022/03/08 00:15:24;;;;;;;24.17;16.65;;;1.90;61.70;;;;;;5090279;28;20050;-87
2022/03/08 00:17:54;;;;;;;24.05;17.83;;;1.90;61.70;;;;;;5090203;28;20045;-88
2022/03/08 00:20:21;;;;;;;28.88;18.75;;;1.90;61.70;;;;;;5092326;28;20126;-87
2022/03/08 00:22:48;;;;;;;24.08;17.70;;;1.90;61.80;;;;;;5090038;28;20456;-87
2022/03/08 00:25:15;;;;;;;28.85;19.20;;;1.80;61.80;;;;;;5089907;28;20105;-87
2022/03/08 00:27:45;;;;;;;26.33;17.23;;;1.80;61.80;;;;;;5089780;28;20048;-86
2022/03/08 00:30:18;;;;;;;27.13;18.48;;;1.80;61.80;;;;;;5090151;28;20421;-86
2022/03/08 00:32:46;;;;;;;25.67;17.92;;;1.80;61.90;;;;;;5090760;28;20044;-86
2022/03/08 00:35:14;;;;;;;26.75;16.83;;;1.80;61.90;;;;;;5090499;28;20117;-86
2022/03/08 00:37:42;;;;;;;22.58;16.27;;;1.70;61.90;;;;;;5089930;28;20044;-86
2022/03/08 00:40:11;;;;;;;20.30;16.10;;;1.70;61.90;;;;;;5089558;28;20044;-86
2022/03/08 00:42:38;;;;;;;23.00;16.13;;;1.70;61.90;;;;;;5089923;28;20044;-86
2022/03/08 00:45:07;;;;;;;20.08;16.05;;;1.70;61.90;;;;;;5090054;28;20093;-85
2022/03/08 00:47:36;;;;;;;22.00;16.05;;;1.70;61.90;;;;;;5091341;28;20045;-86
2022/03/08 00:50:06;;;;;;;21.60;16.40;;;1.70;61.90;;;;;;5090918;28;20044;-85
2022/03/08 00:52:34;;;;;;;22.23;15.43;;;1.70;61.90;;;;;;5090464;28;20060;-86
2022/03/08 00:55:01;;;;;;;23.88;14.82;;;1.70;61.90;;;;;;5092277;28;20463;-85
2022/03/08 00:57:28;;;;;;;23.40;16.40;;;1.70;61.90;;;;;;5093999;28;20044;-86
2022/03/08 00:59:55;;;;;;;21.25;15.73;;;1.60;61.80;;;;;;5093719;28;20044;-86
2022/03/08 01:02:22;;;;;;;18.08;14.40;;;1.60;61.80;;;;;;5095748;28;20474;-84
2022/03/08 01:04:49;;;;;;;20.02;15.18;;;1.70;61.80;;;;;;5093473;28;20452;-87
2022/03/08 01:07:17;;;;;;;19.23;14.88;;;1.60;61.80;;;;;;5093418;28;20468;-87
2022/03/08 01:09:44;;;;;;;20.65;15.75;;;1.60;61.80;;;;;;5092993;28;20044;-86
2022/03/08 01:12:11;;;;;;;19.42;14.93;;;1.70;61.80;;;;;;5092213;28;20056;-86
2022/03/08 01:14:38;;;;;;;18.52;14.10;;;1.60;61.70;;;;;;5094414;28;20048;-86
2022/03/08 01:17:05;;;;;;;21.05;15.10;;;1.60;61.70;;;;;;5094810;28;20062;-86
2022/03/08 01:19:32;;;;;;;20.73;14.82;;;1.60;61.70;;;;;;5093298;28;20075;-85
2022/03/08 01:21:59;;;;;;;19.55;14.27;;;1.60;61.60;;;;;;5093149;28;20048;-85
2022/03/08 01:24:28;;;;;;;19.17;15.27;;;1.60;61.60;;;;;;5093035;28;20047;-85
2022/03/08 01:26:55;;;;;;;20.67;15.48;;;1.60;61.60;;;;;;5093146;28;20079;-86
2022/03/08 01:29:23;;;;;;;19.25;14.93;;;1.60;61.60;;;;;;5095328;28;20052;-85
2022/03/08 01:31:50;;;;;;;17.08;13.85;;;1.60;61.50;;;;;;5092965;28;20528;-85
2022/03/08 01:34:17;;;;;;;17.48;14.10;;;1.60;61.50;;;;;;5092840;28;20044;-85
2022/03/08 01:36:44;;;;;;;19.27;14.57;;;1.60;61.50;;;;;;5093012;28;20233;-86
2022/03/08 01:39:11;;;;;;;20.38;14.80;;;1.60;61.50;;;;;;5092543;28;20448;-85
2022/03/08 01:41:38;;;;;;;21.50;14.75;;;1.60;61.50;;;;;;5094046;28;20405;-86
2022/03/08 01:44:07;;;;;;;18.30;14.38;;;1.60;61.50;;;;;;5094108;28;20559;-85
2022/03/08 01:46:36;;;;;;;20.30;14.80;;;1.60;61.40;;;;;;5092692;28;20059;-85
2022/03/08 01:49:05;;;;;;;20.85;15.15;;;1.60;61.40;;;;;;5092771;28;20048;-85
2022/03/08 01:51:33;;;;;;;24.08;15.10;;;1.60;61.40;;;;;;5091307;28;20048;-85
2022/03/08 01:54:00;;;;;;;18.75;15.50;;;1.60;61.40;;;;;;5076731;28;20048;-85
2022/03/08 01:56:27;;;;;;;20.08;15.45;;;1.50;61.40;;;;;;5090533;28;20456;-85
2022/03/08 01:58:54;;;;;;;18.00;14.48;;;1.60;61.50;;;;;;5092637;28;20044;-85
2022/03/08 02:01:21;;;;;;;18.73;15.02;;;1.50;61.40;;;;;;5092417;28;20044;-85
2022/03/08 02:03:48;;;;;;;21.17;15.68;;;1.50;61.40;;;;;;5092207;28;20044;-86
2022/03/08 02:06:15;;;;;;;19.83;15.68;;;1.50;61.50;;;;;;5092525;28;20047;-85
2022/03/08 02:08:42;;;;;;;20.45;16.42;;;1.50;61.50;;;;;;5092451;28;20097;-85
2022/03/08 02:11:10;;;;;;;19.58;15.90;;;1.50;61.60;;;;;;5094114;28;20051;-86
2022/03/08 02:13:38;;;;;;;19.02;15.55;;;1.50;61.60;;;;;;5092319;28;20379;-85
2022/03/08 02:16:06;;;;;;;19.33;15.00;;;1.50;61.70;;;;;;5092257;28;20040;-85
2022/03/08 02:18:33;;;;;;;19.88;15.35;;;1.50;61.70;;;;;;5092085;28;20044;-85
2022/03/08 02:21:05;;;;;;;19.05;15.57;;;1.40;61.70;;;;;;5092323;28;20040;-86
2022/03/08 02:23:32;;;;;;;22.30;16.10;;;1.50;61.80;;;;;;5089812;28;20073;-85
2022/03/08 02:26:00;;;;;;;20.25;15.77;;;1.40;61.80;;;;;;5091177;28;20464;-85
2022/03/08 02:28:29;;;;;;;20.23;16.35;;;1.40;61.90;;;;;;5091901;28;20044;-85
2022/03/08 02:30:56;;;;;;;21.48;16.50;;;1.40;61.90;;;;;;5090433;28;20089;-85
2022/03/08 02:33:23;;;;;;;23.35;16.83;;;1.40;62.00;;;;;;5092065;28;20051;-85
2022/03/08 02:35:50;;;;;;;25.27;16.67;;;1.40;62.00;;;;;;5091918;28;20052;-84
2022/03/08 02:38:17;;;;;;;22.77;17.02;;;1.40;62.10;;;;;;5093668;28;20048;-85
2022/03/08 02:40:44;;;;;;;21.67;17.65;;;1.30;62.10;;;;;;5091634;28;20044;-85
2022/03/08 02:43:12;;;;;;;22.45;17.17;;;1.30;62.10;;;;;;5091491;28;20044;-85
2022/03/08 02:45:39;;;;;;;23.45;17.55;;;1.30;62.20;;;;;;5091659;28;20044;-85
2022/03/08 02:48:07;;;;;;;20.63;17.08;;;1.30;62.20;;;;;;5091668;28;20048;-85
2022/03/08 02:50:34;;;;;;;22.85;17.38;;;1.30;62.30;;;;;;5092554;28;20039;-85
2022/03/08 02:53:01;;;;;;;20.67;16.75;;;1.30;62.30;;;;;;5092353;28;20116;-84
2022/03/08 02:55:31;;;;;;;24.15;18.17;;;1.30;62.30;;;;;;5090128;28;20506;-85
2022/03/08 02:57:58;;;;;;;20.75;17.23;;;1.20;62.40;;;;;;5091374;28;20468;-85
2022/03/08 03:00:27;;;;;;;21.08;16.33;;;1.20;62.40;;;;;;5091384;28;20051;-85
2022/03/08 03:02:55;;;;;;;21.10;17.00;;;1.20;62.40;;;;;;5091309;28;20044;-85
2022/03/08 03:05:23;;;;;;;22.38;17.05;;;1.20;62.40;;;;;;5093080;28;20052;-85
2022/03/08 03:07:50;;;;;;;20.73;16.67;;;1.20;62.40;;;;;;5091042;28;20494;-85
2022/03/08 03:10:19;;;;;;;23.02;18.17;;;1.20;62.40;;;;;;5089644;28;20052;-85
2022/03/08 03:12:47;;;;;;;21.58;17.10;;;1.20;62.40;;;;;;5091086;28;20048;-85
2022/03/08 03:15:15;;;;;;;22.30;18.13;;;1.20;62.40;;;;;;5090514;28;20464;-85
2022/03/08 03:17:43;;;;;;;23.58;17.02;;;1.20;62.40;;;;;;5091568;28;20506;-86
2022/03/08 03:20:13;;;;;;;22.95;17.40;;;1.20;62.40;;;;;;5090771;28;20048;-85
2022/03/08 03:22:41;;;;;;;22.05;17.48;;;1.20;62.40;;;;;;5090879;28;20109;-84
2022/03/08 03:25:09;;;;;;;24.70;18.38;;;1.20;62.40;;;;;;5090769;28;20040;-85
2022/03/08 03:27:36;;;;;;;20.13;16.23;;;1.10;62.40;;;;;;5090795;28;20052;-85
2022/03/08 03:30:05;;;;;;;23.35;17.88;;;1.10;62.40;;;;;;5090963;28;20049;-85
2022/03/08 03:32:32;;;;;;;24.52;18.30;;;1.10;62.40;;;;;;5092067;28;20571;-85
2022/03/08 03:35:00;;;;;;;21.10;17.67;;;1.10;62.40;;;;;;5089669;28;20044;-85
2022/03/08 03:37:28;;;;;;;21.48;16.88;;;1.10;62.40;;;;;;5090554;28;20457;-85
2022/03/08 03:39:55;;;;;;;20.65;16.92;;;1.10;62.40;;;;;;5090627;28;20040;-84
2022/03/08 03:42:21;;;;;;;22.30;17.00;;;1.00;62.40;;;;;;5090716;28;20048;-85
2022/03/08 03:44:48;;;;;;;22.00;16.73;;;1.00;62.30;;;;;;5090668;28;20048;-84
2022/03/08 03:47:15;;;;;;;21.75;16.58;;;1.00;62.40;;;;;;5092766;28;20532;-85
2022/03/08 03:49:42;;;;;;;22.90;17.00;;;1.00;62.40;;;;;;5088713;28;20059;-84
2022/03/08 03:52:09;;;;;;;21.02;17.42;;;1.00;62.40;;;;;;5090421;28;20105;-87
2022/03/08 03:54:36;;;;;;;19.98;17.15;;;1.00;62.40;;;;;;5090266;28;20040;-86
2022/03/08 03:57:03;;;;;;;23.27;18.75;;;1.00;62.40;;;;;;5090536;28;20102;-85
2022/03/08 03:59:30;;;;;;;24.95;18.67;;;1.00;62.40;;;;;;5092279;28;20456;-85
2022/03/08 04:01:57;;;;;;;20.45;17.23;;;1.00;62.40;;;;;;5090870;28;20094;-85
2022/03/08 04:04:24;;;;;;;21.45;17.67;;;1.00;62.40;;;;;;5089940;28;20044;-85
2022/03/08 04:06:51;;;;;;;22.63;18.67;;;1.00;62.50;;;;;;5090374;28;20045;-86
2022/03/08 04:09:18;;;;;;;21.13;17.67;;;1.00;62.50;;;;;;5090380;28;20040;-85
2022/03/08 04:11:45;;;;;;;21.25;17.80;;;0.90;62.50;;;;;;5090176;28;20052;-85
2022/03/08 04:14:12;;;;;;;25.10;18.30;;;1.00;62.50;;;;;;5092253;28;20098;-85
2022/03/08 04:16:39;;;;;;;22.40;18.38;;;0.90;62.50;;;;;;5090143;28;20510;-85
2022/03/08 04:19:06;;;;;;;25.83;20.30;;;0.90;62.60;;;;;;5089795;28;20052;-85
2022/03/08 04:21:32;;;;;;;24.75;18.77;;;0.90;62.60;;;;;;5090291;28;20047;-85
2022/03/08 04:23:59;;;;;;;23.67;19.35;;;0.90;62.60;;;;;;5074341;28;20037;-85
2022/03/08 04:26:26;;;;;;;25.98;19.67;;;0.90;62.60;;;;;;5086567;28;20060;-86
2022/03/08 04:28:53;;;;;;;24.92;20.08;;;0.90;62.60;;;;;;5093135;28;20375;-85
2022/03/08 04:31:20;;;;;;;23.92;18.75;;;0.90;62.70;;;;;;5094181;28;20089;-85
2022/03/08 04:33:47;;;;;;;26.55;20.00;;;0.90;62.80;;;;;;5093772;28;20075;-85
2022/03/08 04:36:14;;;;;;;26.17;18.88;;;0.90;62.80;;;;;;5094241;28;20456;-85
2022/03/08 04:38:41;;;;;;;25.00;19.95;;;0.90;62.80;;;;;;5094699;28;20102;-85
2022/03/08 04:41:08;;;;;;;27.10;19.55;;;0.90;62.80;;;;;;5095978;28;20044;-85
2022/03/08 04:43:35;;;;;;;28.50;20.42;;;0.90;62.90;;;;;;5093875;28;20101;-85
2022/03/08 04:46:02;;;;;;;25.10;20.25;;;0.80;62.90;;;;;;5093941;28;20093;-85
2022/03/08 04:48:30;;;;;;;25.83;19.08;;;0.80;62.90;;;;;;5093502;28;20450;-85
2022/03/08 04:50:57;;;;;;;25.92;20.42;;;0.80;63.00;;;;;;5093908;28;20049;-85
2022/03/08 04:53:24;;;;;;;28.42;20.70;;;0.80;63.00;;;;;;5095948;28;20052;-84
2022/03/08 04:55:51;;;;;;;26.48;20.25;;;0.70;63.00;;;;;;5093631;28;20048;-84
2022/03/08 04:58:18;;;;;;;28.10;20.48;;;0.80;63.10;;;;;;5093635;28;20566;-85
2022/03/08 05:00:45;;;;;;;26.30;19.98;;;0.80;63.10;;;;;;5093600;28;20044;-85
2022/03/08 05:03:12;;;;;;;26.83;20.00;;;0.80;63.20;;;;;;5093287;28;20044;-85
2022/03/08 05:05:39;;;;;;;29.08;20.95;;;0.70;63.20;;;;;;5094629;28;20517;-85
2022/03/08 05:08:06;;;;;;;22.42;18.38;;;0.70;63.30;;;;;;5093286;28;20048;-84
2022/03/08 05:10:33;;;;;;;26.83;20.77;;;0.70;63.30;;;;;;5093494;28;20422;-84
2022/03/08 05:13:01;;;;;;;26.90;21.23;;;0.70;63.30;;;;;;5093319;28;20055;-84
2022/03/08 05:15:28;;;;;;;24.38;19.85;;;0.70;63.30;;;;;;5093252;28;20040;-84
2022/03/08 05:17:55;;;;;;;26.17;20.88;;;0.70;63.40;;;;;;5093430;28;20044;-84
2022/03/08 05:20:22;;;;;;;23.67;19.33;;;0.70;63.50;;;;;;5095560;28;20493;-82
2022/03/08 05:22:49;;;;;;;28.75;19.98;;;0.70;63.50;;;;;;5093313;28;20051;-84
2022/03/08 05:25:16;;;;;;;27.27;21.15;;;0.70;63.50;;;;;;5092974;28;20105;-86
2022/03/08 05:27:43;;;;;;;26.77;20.58;;;0.60;63.60;;;;;;5093143;28;20090;-84
2022/03/08 05:30:12;;;;;;;25.83;20.48;;;0.60;63.60;;;;;;5092935;28;20110;-85
2022/03/08 05:32:39;;;;;;;27.85;22.35;;;0.60;63.60;;;;;;5093931;28;20520;-85
2022/03/08 05:35:06;;;;;;;27.08;20.75;;;0.60;63.70;;;;;;5094444;28;20109;-85
2022/03/08 05:37:33;;;;;;;25.45;20.75;;;0.60;63.70;;;;;;5092883;28;20501;-85
2022/03/08 05:40:00;;;;;;;26.73;20.95;;;0.60;63.70;;;;;;5092306;28;20047;-85
2022/03/08 05:42:27;;;;;;;26.60;20.58;;;0.60;63.70;;;;;;5092932;28;20051;-84
2022/03/08 05:44:54;;;;;;;27.88;21.30;;;0.60;63.80;;;;;;5092189;28;20445;-84
2022/03/08 05:47:21;;;;;;;26.50;21.88;;;0.60;63.80;;;;;;5094135;28;20460;-85
2022/03/08 05:49:48;;;;;;;33.38;22.05;;;0.60;63.80;;;;;;5092571;28;20498;-85
2022/03/08 05:52:15;;;;;;;29.73;22.92;;;0.60;63.80;;;;;;5092745;28;20094;-85
2022/03/08 05:54:42;;;;;;;29.50;21.77;;;0.50;63.80;;;;;;5092611;28;20093;-85
2022/03/08 05:57:08;;;;;;;28.40;22.20;;;0.50;63.80;;;;;;5092636;28;20048;-85
2022/03/08 05:59:35;;;;;;;26.90;22.05;;;0.50;63.80;;;;;;5093742;28;20044;-84
2022/03/08 06:02:02;;;;;;;27.63;21.25;;;0.50;63.80;;;;;;5091174;28;20052;-84
2022/03/08 06:04:30;;;;;;;27.35;22.15;;;0.50;63.90;;;;;;5092376;28;20052;-84
2022/03/08 06:06:56;;;;;;;26.50;21.52;;;0.50;63.80;;;;;;5092347;28;20105;-85
2022/03/08 06:09:23;;;;;;;30.35;22.08;;;0.50;63.90;;;;;;5092393;28;20048;-86
2022/03/08 06:11:50;;;;;;;27.55;22.17;;;0.50;63.90;;;;;;5092228;28;20052;-85
2022/03/08 06:14:17;;;;;;;27.83;20.98;;;0.50;64.00;;;;;;5094075;28;20533;-85
2022/03/08 06:16:44;;;;;;;27.67;22.73;;;0.50;64.00;;;;;;5092251;28;20044;-85
2022/03/08 06:19:11;;;;;;;29.35;22.33;;;0.40;64.00;;;;;;5092057;28;20054;-85
2022/03/08 06:21:38;;;;;;;27.50;22.55;;;0.40;64.10;;;;;;5092224;28;20044;-85
2022/03/08 06:24:05;;;;;;;30.08;23.55;;;0.40;64.10;;;;;;5090712;28;20043;-85
2022/03/08 06:26:32;;;;;;;26.15;22.05;;;0.40;64.10;;;;;;5093490;28;20048;-84
2022/03/08 06:29:00;;;;;;;28.95;22.20;;;0.40;64.20;;;;;;5089848;28;20047;-85
2022/03/08 06:31:27;;;;;;;33.13;23.67;;;0.40;64.10;;;;;;5091687;28;20043;-84
2022/03/08 06:33:54;;;;;;;35.20;23.58;;;0.40;64.20;;;;;;5089482;28;20095;-84
2022/03/08 06:36:21;;;;;;;29.92;21.88;;;0.40;64.20;;;;;;5082890;28;20407;-84
2022/03/08 06:38:48;;;;;;;30.75;23.55;;;0.40;64.20;;;;;;5091021;28;20052;-84
2022/03/08 06:41:15;;;;;;;28.25;22.30;;;0.40;64.20;;;;;;5096083;28;20048;-84
2022/03/08 06:43:41;;;;;;;31.00;22.40;;;0.40;64.20;;;;;;5091135;28;20048;-84
2022/03/08 06:46:08;;;;;;;28.50;22.00;;;0.40;64.20;;;;;;5090859;28;20505;-84
2022/03/08 06:48:37;;;;;;;31.48;22.40;;;0.40;64.10;;;;;;5091156;28;20480;-84
2022/03/08 06:51:04;;;;;;;33.13;22.63;;;0.40;64.10;;;;;;5090369;28;20461;-84
2022/03/08 06:53:31;;;;;;;27.95;22.40;;;0.40;64.00;;;;;;5095363;28;20052;-84
2022/03/08 06:55:58;;;;;;;29.00;21.17;;;0.40;64.00;;;;;;5091780;28;20044;-85
2022/03/08 06:58:26;;;;;;;27.92;20.90;;;0.40;64.00;;;;;;5090542;28;20518;-84
2022/03/08 07:00:54;;;;;;;29.60;23.02;;;0.50;64.00;;;;;;5090629;28;20102;-84
2022/03/08 07:03:22;;;;;;;26.98;22.02;;;0.50;63.90;;;;;;5089531;28;20051;-85
2022/03/08 07:05:49;;;;;;;28.92;21.45;;;0.50;63.90;;;;;;5091137;28;20093;-84
2022/03/08 07:08:16;;;;;;;27.95;21.67;;;0.50;63.90;;;;;;5092583;28;20505;-85
2022/03/08 07:10:42;;;;;;;29.00;21.38;;;0.50;63.80;;;;;;5090879;28;20105;-85
2022/03/08 07:13:09;;;;;;;27.65;21.60;;;0.50;63.80;;;;;;5090346;28;20048;-85
2022/03/08 07:15:37;;;;;;;27.50;22.35;;;0.60;63.80;;;;;;5090648;28;20051;-85
2022/03/08 07:18:04;;;;;;;31.42;22.27;;;0.60;63.80;;;;;;5090963;28;20106;-85
2022/03/08 07:20:31;;;;;;;28.90;22.20;;;0.60;63.70;;;;;;5092643;28;20044;-85
2022/03/08 07:22:58;;;;;;;31.25;22.25;;;0.60;63.70;;;;;;5090602;28;20570;-85
2022/03/08 07:25:25;;;;;;;35.08;22.20;;;0.70;63.60;;;;;;5090256;28;20063;-85
2022/03/08 07:27:52;;;;;;;28.25;22.13;;;0.70;63.60;;;;;;5091157;28;20101;-87
2022/03/08 07:30:34;;;;;;;32.50;21.45;;;0.70;63.60;;;;;;5101700;28;20074;-87
2022/03/08 07:33:01;;;;;;;29.13;22.55;;;0.70;63.60;;;;;;5090650;28;20132;-86
2022/03/08 07:35:34;;;;;;;33.35;22.60;;;0.70;63.50;;;;;;5088604;28;20051;-86
2022/03/08 07:38:01;;;;;;;27.83;21.75;;;0.80;63.50;;;;;;5090670;28;20056;-86
2022/03/08 07:40:29;;;;;;;28.88;22.27;;;0.80;63.40;;;;;;5089919;28;20044;-85
2022/03/08 07:42:55;;;;;;;32.03;22.95;;;0.90;63.40;;;;;;5088988;28;20101;-86
2022/03/08 07:45:23;;;;;;;33.20;24.40;;;0.90;63.30;;;;;;5089182;28;20089;-85
2022/03/08 07:47:50;;;;;;;27.92;22.83;;;0.90;63.30;;;;;;5089627;28;20047;-85
2022/03/08 07:50:17;;;;;;;29.08;23.40;;;0.90;63.30;;;;;;5091911;28;20074;-85
2022/03/08 07:52:47;;;;;;;28.95;22.88;;;0.90;63.30;;;;;;5089698;28;20056;-85
2022/03/08 07:55:14;;;;;;;31.17;22.83;;;1.00;63.20;;;;;;5089778;28;20126;-86
2022/03/08 07:57:41;;;;;;;29.05;22.75;;;1.00;63.10;;;;;;5090244;28;20052;-86
2022/03/08 08:00:28;;;;;;;27.73;22.58;;;1.00;63.00;;;;;;5089975;28;20058;-85
2022/03/08 08:02:55;;;;;;;27.10;21.20;;;1.10;63.00;;;;;;5090020;28;20040;-85
2022/03/08 08:05:22;;;;;;;30.35;23.83;;;1.10;62.90;;;;;;5092049;28;20048;-84
2022/03/08 08:07:49;;;;;;;34.47;23.35;;;1.20;62.80;;;;;;5088515;28;20097;-84
2022/03/08 08:10:16;;;;;;;32.85;23.13;;;1.20;62.70;;;;;;5089695;28;20097;-85
2022/03/08 08:12:43;;;;;;;32.63;22.88;;;1.20;62.70;;;;;;5089806;28;20060;-84
2022/03/08 08:15:10;;;;;;;30.77;22.83;;;1.30;62.80;;;;;;5090047;28;20044;-84
2022/03/08 08:17:37;;;;;;;27.13;22.42;;;1.30;62.80;;;;;;5091151;28;20570;-84
2022/03/08 08:20:05;;;;;;;27.48;22.33;;;1.40;62.80;;;;;;5090945;28;20048;-84
2022/03/08 08:22:31;;;;;;;31.15;23.20;;;1.40;62.90;;;;;;5088014;28;20457;-84
2022/03/08 08:24:58;;;;;;;29.02;22.38;;;1.50;62.80;;;;;;5089562;28;20044;-85
2022/03/08 08:27:26;;;;;;;29.73;22.23;;;1.50;62.80;;;;;;5089399;28;20536;-84
2022/03/08 08:29:52;;;;;;;26.98;21.65;;;1.50;62.80;;;;;;5089831;28;20044;-85
2022/03/08 08:32:19;;;;;;;31.35;23.13;;;1.60;62.70;;;;;;5091687;28;20052;-86
2022/03/08 08:34:46;;;;;;;30.67;24.80;;;1.70;62.70;;;;;;5089747;28;20452;-85
2022/03/08 08:37:13;;;;;;;31.70;23.95;;;1.70;62.70;;;;;;5089478;28;20094;-85
2022/03/08 08:39:40;;;;;;;30.77;24.02;;;1.70;62.80;;;;;;5089240;28;20055;-85
2022/03/08 08:42:08;;;;;;;32.67;24.58;;;1.80;62.70;;;;;;5089859;28;20044;-85
2022/03/08 08:44:40;;;;;;;30.52;23.77;;;1.80;62.70;;;;;;5090425;28;20055;-84
2022/03/08 08:47:07;;;;;;;30.85;23.17;;;1.90;62.70;;;;;;5091035;28;20075;-84
2022/03/08 08:49:34;;;;;;;29.48;24.45;;;2.00;62.60;;;;;;5089584;28;20052;-84
2022/03/08 08:52:03;;;;;;;30.92;22.98;;;2.00;62.50;;;;;;5089258;28;20879;-84
2022/03/08 08:54:30;;;;;;;30.95;23.40;;;2.10;62.40;;;;;;5089347;28;20048;-84
2022/03/08 08:56:57;;;;;;;30.15;23.92;;;2.20;62.20;;;;;;5089564;28;20040;-84
2022/03/08 08:59:24;;;;;;;33.13;24.02;;;2.20;62.10;;;;;;5091471;28;20052;-85
2022/03/08 09:01:51;;;;;;;28.73;24.17;;;2.30;61.90;;;;;;5087842;28;20106;-84
2022/03/08 09:04:18;;;;;;;29.52;23.90;;;2.40;61.80;;;;;;5089855;28;20069;-84
2022/03/08 09:06:45;;;;;;;32.50;24.38;;;2.40;61.70;;;;;;5089658;28;20501;-85
2022/03/08 09:09:12;;;;;;;28.52;23.25;;;2.50;61.70;;;;;;5089382;28;20502;-85
2022/03/08 09:11:39;;;;;;;33.88;24.00;;;2.60;61.50;;;;;;5090759;28;20493;-85
2022/03/08 09:14:06;;;;;;;28.83;22.73;;;2.70;61.50;;;;;;5092372;28;20052;-85
2022/03/08 09:16:33;;;;;;;30.50;24.48;;;2.70;61.50;;;;;;5092831;28;20506;-84
2022/03/08 09:19:00;;;;;;;32.20;24.65;;;2.80;61.40;;;;;;5092798;28;20044;-85
2022/03/08 09:21:27;;;;;;;29.27;24.05;;;2.90;61.30;;;;;;5093088;28;20059;-86
2022/03/08 09:23:54;;;;;;;29.05;23.33;;;2.90;61.10;;;;;;5092724;28;20105;-86
2022/03/08 09:26:21;;;;;;;30.75;24.90;;;3.00;60.90;;;;;;5095249;28;20177;-86
2022/03/08 09:28:48;;;;;;;30.45;23.55;;;3.10;60.70;;;;;;5093244;28;20094;-85
2022/03/08 09:31:15;;;;;;;29.05;23.55;;;3.20;60.60;;;;;;5092922;28;20047;-83
2022/03/08 09:33:42;;;;;;;34.10;24.35;;;3.30;60.60;;;;;;5092873;28;20472;-83
2022/03/08 09:36:10;;;;;;;29.98;23.30;;;3.40;60.50;;;;;;5093037;28;20040;-84
2022/03/08 09:38:38;;;;;;;29.80;23.73;;;3.40;60.50;;;;;;5094026;28;20052;-84
2022/03/08 09:41:05;;;;;;;35.42;25.05;;;3.50;60.30;;;;;;5094283;28;20048;-83
2022/03/08 09:43:36;;;;;;;36.75;24.58;;;3.60;60.20;;;;;;5092784;28;20055;-84
2022/03/08 09:46:06;;;;;;;29.73;24.55;;;3.70;60.00;;;;;;5092819;28;20048;-83
2022/03/08 09:48:34;;;;;;;31.98;24.98;;;3.80;59.90;;;;;;5092729;28;20102;-84
2022/03/08 09:51:03;;;;;;;40.50;23.98;;;3.90;59.80;;;;;;5076751;28;20047;-83
2022/03/08 09:53:31;;;;;;;30.38;25.08;;;4.00;59.80;;;;;;5090859;28;20490;-84
2022/03/08 09:56:02;;;;;;;33.20;25.30;;;4.10;59.70;;;;;;5093200;28;20047;-84
2022/03/08 09:58:31;;;;;;;27.02;23.70;;;4.20;59.60;;;;;;5092543;28;20464;-84
2022/03/08 10:01:02;;;;;;;29.98;23.88;;;4.30;59.50;;;;;;5092588;28;20078;-84
2022/03/08 10:03:35;;;;;;;31.90;25.33;;;4.40;59.30;;;;;;5092678;28;20150;-84
2022/03/08 10:06:03;;;;;;;27.90;23.95;;;4.50;59.10;;;;;;5076486;28;20453;-84
2022/03/08 10:08:30;;;;;;;28.83;24.67;;;4.60;58.90;;;;;;5090624;28;20399;-83
2022/03/08 10:11:01;;;;;;;29.50;24.98;;;4.70;58.70;;;;;;5092833;28;20109;-83
2022/03/08 10:13:48;;;;;;;33.92;24.85;;;4.80;58.60;;;;;;5092133;28;20048;-83
2022/03/08 10:16:23;;;;;;;32.50;25.58;;;4.90;58.30;;;;;;5091164;28;20044;-83
2022/03/08 10:18:52;;;;;;;32.60;25.63;;;5.00;58.10;;;;;;5090799;28;20140;-83
2022/03/08 10:21:38;;;;;;;35.22;24.33;;;5.10;58.00;;;;;;5092019;28;20506;-84
2022/03/08 10:24:21;;;;;;;31.02;25.08;;;5.30;57.90;;;;;;5076851;28;20567;-85
2022/03/08 10:26:56;;;;;;;35.17;25.20;;;5.40;57.80;;;;;;5091989;28;20052;-84
2022/03/08 10:29:32;;;;;;;28.73;24.50;;;5.50;57.70;;;;;;5094191;28;20056;-87
2022/03/08 10:32:10;;;;;;;36.42;24.48;;;5.50;57.60;;;;;;5090064;28;20051;-88
2022/03/08 10:34:39;;;;;;;31.27;24.45;;;5.70;57.40;;;;;;5091213;28;20063;-86
2022/03/08 10:37:14;;;;;;;29.85;23.55;;;5.70;57.20;;;;;;5091681;28;20044;-86
2022/03/08 10:40:12;;;;;;;29.10;23.42;;;5.90;57.00;;;;;;5091761;28;20048;-83
2022/03/08 10:42:40;;;;;;;27.70;24.02;;;5.90;56.80;;;;;;5026054;28;20058;-87
2022/03/08 10:45:13;;;;;;;30.80;24.05;;;6.00;56.70;;;;;;5030051;28;20049;-85
2022/03/08 10:47:53;;;;;;;28.00;23.23;;;6.10;56.50;;;;;;5028276;28;20092;-86
2022/03/08 10:50:26;;;;;;;28.50;23.65;;;6.20;56.30;;;;;;5029964;28;20065;-86
2022/03/08 10:52:55;;;;;;;29.42;23.33;;;6.30;56.10;;;;;;5029601;28;20574;-86
2022/03/08 10:55:24;;;;;;;30.88;24.33;;;6.40;56.00;;;;;;5025853;28;20099;-87
2022/03/08 10:57:54;;;;;;;30.75;24.60;;;6.40;55.90;;;;;;5030328;28;20095;-86
2022/03/08 11:00:25;;;;;;;30.42;24.23;;;6.50;55.70;;;;;;5030239;28;20085;-86
2022/03/08 11:02:56;;;;;;;28.42;23.88;;;6.60;55.50;;;;;;5030171;28;20053;-86
2022/03/08 11:05:25;;;;;;;32.55;24.48;;;6.70;55.40;;;;;;5030527;28;20519;-86
2022/03/08 11:07:54;;;;;;;27.63;23.77;;;6.80;55.20;;;;;;5030051;28;20045;-86
2022/03/08 11:10:21;;;;;;;29.98;23.40;;;6.90;55.10;;;;;;5030132;28;20047;-88
2022/03/08 11:12:48;;;;;;;31.75;23.70;;;6.90;55.00;;;;;;5030167;28;20056;-89
2022/03/08 11:15:18;;;;;;;29.55;24.88;;;7.00;54.80;;;;;;5030156;28;20060;-87
2022/03/08 11:17:48;;;;;;;30.05;24.75;;;7.00;54.70;;;;;;5030413;28;20045;-87
2022/03/08 11:20:19;;;;;;;33.42;25.27;;;7.10;54.60;;;;;;5089663;28;20056;-87
2022/03/08 11:22:51;;;;;;;30.30;24.50;;;7.10;54.40;;;;;;5090792;28;20052;-86
2022/03/08 11:25:19;;;;;;;28.90;23.95;;;7.20;54.50;;;;;;5090641;28;20123;-88
2022/03/08 11:28:07;;;;;;;30.45;24.48;;;7.30;54.40;;;;;;5090632;28;20128;-87
2022/03/08 11:30:42;;;;;;;30.25;25.25;;;7.30;54.50;;;;;;5090594;28;20093;-88
2022/03/08 11:33:26;;;;;;;30.67;25.55;;;7.40;54.50;;;;;;5089013;28;20044;-88
2022/03/08 11:36:14;;;;;;;32.97;24.15;;;7.40;54.40;;;;;;5090247;28;20114;-87
2022/03/08 11:38:41;;;;;;;31.65;24.63;;;7.40;54.30;;;;;;5089352;28;20048;-88
2022/03/08 11:41:08;;;;;;;27.27;23.63;;;7.50;54.20;;;;;;5092236;28;20044;-87
2022/03/08 11:43:39;;;;;;;28.15;23.63;;;7.50;54.10;;;;;;5090548;28;20402;-88
2022/03/08 11:46:10;;;;;;;31.90;24.65;;;7.60;54.00;;;;;;5090562;28;20048;-87
2022/03/08 11:48:53;;;;;;;30.58;24.42;;;7.60;53.90;;;;;;5090268;28;20040;-88
2022/03/08 11:51:22;;;;;;;32.10;25.33;;;7.70;53.80;;;;;;5090855;28;20048;-88
2022/03/08 11:54:00;;;;;;;28.92;24.50;;;7.70;53.70;;;;;;5090038;28;20098;-88
2022/03/08 11:56:27;;;;;;;29.25;24.58;;;7.70;53.70;;;;;;5088449;28;20051;-87
2022/03/08 11:58:54;;;;;;;33.90;24.30;;;7.80;53.80;;;;;;5090582;28;20464;-88
2022/03/08 12:01:36;;;;;;;30.55;25.33;;;7.80;53.70;;;;;;5090272;28;20101;-89
2022/03/08 12:04:15;;;;;;;31.00;23.77;;;7.90;53.70;;;;;;5090446;28;20047;-87
2022/03/08 12:06:50;;;;;;;31.08;24.40;;;7.90;53.60;;;;;;5090230;28;20136;-84
2022/03/08 12:09:18;;;;;;;31.02;25.33;;;7.90;53.40;;;;;;5090317;28;20528;-90
2022/03/08 12:11:47;;;;;;;32.15;24.38;;;8.00;53.30;;;;;;5089670;28;20082;-89
2022/03/08 12:14:38;;;;;;;28.10;23.70;;;8.00;53.30;;;;;;5091790;28;20494;-88
2022/03/08 12:17:15;;;;;;;30.90;24.13;;;8.00;53.10;;;;;;5091632;28;20048;-88
2022/03/08 12:19:48;;;;;;;29.98;25.33;;;8.10;53.10;;;;;;5090111;28;20048;-88
2022/03/08 12:22:21;;;;;;;30.48;23.88;;;8.20;53.10;;;;;;5090038;28;20055;-88
2022/03/08 12:24:56;;;;;;;30.33;23.65;;;8.20;53.10;;;;;;5088836;28;20044;-89
2022/03/08 12:27:44;;;;;;;26.60;23.27;;;8.30;53.10;;;;;;5089998;28;20068;-85
2022/03/08 12:30:11;;;;;;;30.88;24.10;;;8.40;53.00;;;;;;5075925;28;20508;-86
2022/03/08 12:32:42;;;;;;;31.42;24.73;;;8.40;52.90;;;;;;5090755;28;20048;-85
2022/03/08 12:35:14;;;;;;;28.30;21.95;;;8.50;52.80;;;;;;5091919;28;20136;-88
2022/03/08 12:37:46;;;;;;;33.00;23.67;;;8.50;52.80;;;;;;5089011;28;20432;-87
2022/03/08 12:40:15;;;;;;;27.30;23.67;;;8.60;52.70;;;;;;5090697;28;20044;-87
2022/03/08 12:42:52;;;;;;;29.75;24.08;;;8.70;52.60;;;;;;5089349;28;20471;-87